createdAt,value
2024-01-21T00:01:51.239Z,68.16
2024-01-21T00:04:18.041Z,68.45
2024-01-21T00:06:44.652Z,68.38
2024-01-21T00:09:11.707Z,68.23
2024-01-21T00:11:38.287Z,68.31
2024-01-21T00:14:04.937Z,68.46
2024-01-21T00:16:31.432Z,68.28
2024-01-21T00:18:57.976Z,68.24
2024-01-21T00:21:24.591Z,68.48
2024-01-21T00:23:51.120Z,68.08
2024-01-21T00:26:17.783Z,67.95
2024-01-21T00:28:44.331Z,67.80
2024-01-21T00:31:10.924Z,67.63
2024-01-21T00:33:37.542Z,67.60
2024-01-21T00:36:04.364Z,68.11
2024-01-21T00:38:30.917Z,67.68
2024-01-21T00:40:57.425Z,68.05
2024-01-21T00:43:23.943Z,67.79
2024-01-21T00:45:50.538Z,68.01
2024-01-21T00:48:17.194Z,67.69
2024-01-21T00:50:43.906Z,68.06
2024-01-21T00:53:10.401Z,67.89
2024-01-21T00:55:36.946Z,67.86
2024-01-21T00:58:03.620Z,67.72
2024-01-21T01:00:30.303Z,67.38
2024-01-21T01:02:57.004Z,67.53
2024-01-21T01:05:23.704Z,67.47
2024-01-21T01:07:50.784Z,67.25
2024-01-21T01:10:17.294Z,67.43
2024-01-21T01:12:43.896Z,66.63
2024-01-21T01:15:12.485Z,66.65
2024-01-21T01:17:39.159Z,66.81
2024-01-21T01:20:06.762Z,66.82
2024-01-21T01:22:33.255Z,66.68
2024-01-21T01:24:59.847Z,66.79
2024-01-21T01:27:27.701Z,66.59
2024-01-21T01:29:54.496Z,66.59
2024-01-21T01:32:20.971Z,66.63
2024-01-21T01:34:47.696Z,66.48
2024-01-21T01:37:14.976Z,66.66
2024-01-21T01:39:41.572Z,66.48
2024-01-21T01:42:08.453Z,66.33
2024-01-21T01:44:35.125Z,66.46
2024-01-21T01:47:02.085Z,66.87
2024-01-21T01:49:29.041Z,66.96
2024-01-21T01:51:57.933Z,66.72
2024-01-21T01:54:29.300Z,66.74
2024-01-21T01:56:56.005Z,66.45
2024-01-21T01:59:23.475Z,67.12
2024-01-21T02:01:50.081Z,66.96
2024-01-21T02:04:16.891Z,67.00
2024-01-21T02:06:43.753Z,67.09
2024-01-21T02:09:10.825Z,67.08
2024-01-21T02:11:37.457Z,67.13
2024-01-21T02:14:04.095Z,67.33
2024-01-21T02:16:30.649Z,67.21
2024-01-21T02:18:58.156Z,67.05
2024-01-21T02:21:24.814Z,67.04
2024-01-21T02:23:51.400Z,67.35
2024-01-21T02:26:17.938Z,67.49
2024-01-21T02:28:44.486Z,67.81
2024-01-21T02:31:11.101Z,68.03
2024-01-21T02:33:37.705Z,67.63
2024-01-21T02:36:05.216Z,67.71
2024-01-21T02:38:31.724Z,68.51
2024-01-21T02:40:58.263Z,68.20
2024-01-21T02:43:24.754Z,68.33
2024-01-21T02:45:51.302Z,68.17
2024-01-21T02:48:17.895Z,68.37
2024-01-21T02:50:44.506Z,67.83
2024-01-21T02:53:11.009Z,67.56
2024-01-21T02:55:37.515Z,67.54
2024-01-21T02:58:04.176Z,67.51
2024-01-21T03:00:30.709Z,67.13
2024-01-21T03:02:59.934Z,67.15
2024-01-21T03:05:26.591Z,67.04
2024-01-21T03:07:53.176Z,67.16
2024-01-21T03:10:19.650Z,67.03
2024-01-21T03:12:46.187Z,66.74
2024-01-21T03:15:12.812Z,67.09
2024-01-21T03:17:39.396Z,67.07
2024-01-21T03:20:06.932Z,67.04
2024-01-21T03:22:33.476Z,66.81
2024-01-21T03:25:00.217Z,66.62
2024-01-21T03:27:26.933Z,67.11
2024-01-21T03:29:53.509Z,66.74
2024-01-21T03:32:20.031Z,67.04
2024-01-21T03:34:46.574Z,67.12
2024-01-21T03:37:13.155Z,67.40
2024-01-21T03:39:39.781Z,67.79
2024-01-21T03:42:06.365Z,68.12
2024-01-21T03:44:32.894Z,67.91
2024-01-21T03:47:01.543Z,67.87
2024-01-21T03:49:31.319Z,67.78
2024-01-21T03:51:57.938Z,67.63
2024-01-21T03:54:24.558Z,67.48
2024-01-21T03:56:51.103Z,67.64
2024-01-21T03:59:17.618Z,67.23
2024-01-21T04:01:45.140Z,67.40
2024-01-21T04:04:13.014Z,67.23
2024-01-21T04:06:44.098Z,67.13
2024-01-21T04:09:11.635Z,66.29
2024-01-21T04:11:38.222Z,66.85
2024-01-21T04:14:04.770Z,66.52
2024-01-21T04:16:32.285Z,66.66
2024-01-21T04:18:58.919Z,66.19
2024-01-21T04:21:25.603Z,66.04
2024-01-21T04:23:52.132Z,65.78
2024-01-21T04:26:18.722Z,65.88
2024-01-21T04:28:45.226Z,66.04
2024-01-21T04:31:11.855Z,66.27
2024-01-21T04:33:38.561Z,66.26
2024-01-21T04:36:05.738Z,66.50
2024-01-21T04:38:32.424Z,66.90
2024-01-21T04:40:58.961Z,67.02
2024-01-21T04:43:25.894Z,66.86
2024-01-21T04:45:52.663Z,67.42
2024-01-21T04:48:19.767Z,67.12
2024-01-21T04:50:46.429Z,66.39
2024-01-21T04:53:13.379Z,65.52
2024-01-21T04:55:39.944Z,65.22
2024-01-21T04:58:06.483Z,65.53
2024-01-21T05:00:33.113Z,65.39
2024-01-21T05:02:59.733Z,65.44
2024-01-21T05:05:26.208Z,65.55
2024-01-21T05:07:53.191Z,65.10
2024-01-21T05:10:19.714Z,65.38
2024-01-21T05:12:46.356Z,65.63
2024-01-21T05:15:12.971Z,64.93
2024-01-21T05:17:39.513Z,65.45
2024-01-21T05:20:09.640Z,65.44
2024-01-21T05:22:36.711Z,65.43
2024-01-21T05:25:04.745Z,65.53
2024-01-21T05:27:33.321Z,65.97
2024-01-21T05:29:59.836Z,66.01
2024-01-21T05:32:26.620Z,65.78
2024-01-21T05:34:53.198Z,65.96
2024-01-21T05:37:19.842Z,66.48
2024-01-21T05:39:46.442Z,66.14
2024-01-21T05:42:13.036Z,66.69
2024-01-21T05:44:39.729Z,67.54
2024-01-21T05:47:06.378Z,68.42
2024-01-21T05:49:33.576Z,68.21
2024-01-21T05:52:00.355Z,68.86
2024-01-21T05:54:27.824Z,68.29
2024-01-21T05:56:54.476Z,67.69
2024-01-21T05:59:22.081Z,68.41
2024-01-21T06:01:50.336Z,69.32
2024-01-21T06:04:17.554Z,70.74
2024-01-21T06:06:44.992Z,72.24
2024-01-21T06:09:12.121Z,72.46
2024-01-21T06:11:41.108Z,73.29
2024-01-21T06:14:08.092Z,73.69
2024-01-21T06:16:34.652Z,73.27
2024-01-21T06:19:01.285Z,72.33
2024-01-21T06:21:27.881Z,70.50
2024-01-21T06:23:54.557Z,70.18
2024-01-21T06:26:23.444Z,70.38
2024-01-21T06:28:51.009Z,70.65
2024-01-21T06:31:19.487Z,71.64
2024-01-21T06:33:46.343Z,72.64
2024-01-21T06:36:13.086Z,73.26
2024-01-21T06:38:40.071Z,73.96
2024-01-21T06:41:06.576Z,73.24
2024-01-21T06:43:33.197Z,71.77
2024-01-21T06:45:59.758Z,70.67
2024-01-21T06:48:26.616Z,70.88
2024-01-21T06:50:54.305Z,71.02
2024-01-21T06:53:21.408Z,71.57
2024-01-21T06:55:47.938Z,71.40
2024-01-21T06:58:14.455Z,71.24
2024-01-21T07:00:41.053Z,71.28
2024-01-21T07:03:07.669Z,71.29
2024-01-21T07:05:34.337Z,71.19
2024-01-21T07:08:00.810Z,72.40
2024-01-21T07:10:27.312Z,73.34
2024-01-21T07:12:54.136Z,73.71
2024-01-21T07:15:20.899Z,73.81
2024-01-21T07:17:47.747Z,72.69
2024-01-21T07:20:14.451Z,72.51
2024-01-21T07:22:41.091Z,73.00
2024-01-21T07:25:08.194Z,72.66
2024-01-21T07:27:35.855Z,72.07
2024-01-21T07:30:02.507Z,72.17
2024-01-21T07:32:29.044Z,72.17
2024-01-21T07:34:55.612Z,72.26
2024-01-21T07:37:22.198Z,71.82
2024-01-21T07:39:49.989Z,71.13
2024-01-21T07:42:16.585Z,70.20
2024-01-21T07:44:43.101Z,69.28
2024-01-21T07:47:09.588Z,69.68
2024-01-21T07:49:36.193Z,69.50
2024-01-21T07:52:02.811Z,68.81
2024-01-21T07:54:29.347Z,68.40
2024-01-21T07:56:56.104Z,67.54
2024-01-21T07:59:22.614Z,67.54
2024-01-21T08:01:49.147Z,66.54
2024-01-21T08:04:15.739Z,65.39
2024-01-21T08:06:43.005Z,64.69
2024-01-21T08:09:09.780Z,64.54
2024-01-21T08:11:36.278Z,63.83
2024-01-21T08:14:02.814Z,62.95
2024-01-21T08:16:29.356Z,62.67
2024-01-21T08:18:56.140Z,62.52
2024-01-21T08:21:22.730Z,61.93
2024-01-21T08:23:49.246Z,62.03
2024-01-21T08:26:17.537Z,62.25
2024-01-21T08:28:44.409Z,61.57
2024-01-21T08:31:10.882Z,61.79
2024-01-21T08:33:37.685Z,60.93
2024-01-21T08:36:04.799Z,60.78
2024-01-21T08:38:31.307Z,60.67
2024-01-21T08:40:57.889Z,60.18
2024-01-21T08:43:24.418Z,59.90
2024-01-21T08:45:50.966Z,59.73
2024-01-21T08:48:17.673Z,59.45
2024-01-21T08:50:44.316Z,59.11
2024-01-21T08:53:11.273Z,58.00
2024-01-21T08:55:37.850Z,58.52
2024-01-21T08:58:04.743Z,58.50
2024-01-21T09:00:31.363Z,58.52
2024-01-21T09:02:58.066Z,58.13
2024-01-21T09:05:24.597Z,58.12
2024-01-21T09:07:51.112Z,57.00
2024-01-21T09:10:18.346Z,57.04
2024-01-21T09:12:44.865Z,56.47
2024-01-21T09:15:12.065Z,58.00
2024-01-21T09:17:38.789Z,57.38
2024-01-21T09:20:05.963Z,57.21
2024-01-21T09:22:32.645Z,57.41
2024-01-21T09:24:59.271Z,56.85
2024-01-21T09:27:26.001Z,57.08
2024-01-21T09:29:52.598Z,56.30
2024-01-21T09:32:19.044Z,56.06
2024-01-21T09:34:46.888Z,56.68
2024-01-21T09:37:13.557Z,55.66
2024-01-21T09:39:40.159Z,55.32
2024-01-21T09:42:10.794Z,55.06
2024-01-21T09:44:37.551Z,54.96
2024-01-21T09:47:04.309Z,54.98
2024-01-21T09:49:33.004Z,55.84
2024-01-21T09:52:02.384Z,56.16
2024-01-21T09:54:29.277Z,56.46
2024-01-21T09:56:55.979Z,56.12
2024-01-21T09:59:23.176Z,54.39
2024-01-21T10:01:49.966Z,54.56
2024-01-21T10:04:16.833Z,53.78
2024-01-21T10:06:44.223Z,55.09
2024-01-21T10:09:18.174Z,55.72
2024-01-21T10:11:54.036Z,54.93
2024-01-21T10:14:20.625Z,55.34
2024-01-21T10:16:47.853Z,54.45
2024-01-21T10:19:27.368Z,54.61
2024-01-21T10:22:21.510Z,52.89
2024-01-21T10:24:49.986Z,53.29
2024-01-21T10:27:17.204Z,54.29
2024-01-21T10:29:45.697Z,54.20
2024-01-21T10:32:14.636Z,54.00
2024-01-21T10:34:44.655Z,53.91
2024-01-21T10:37:11.343Z,53.69
2024-01-21T10:39:38.490Z,53.07
2024-01-21T10:42:09.182Z,54.07
2024-01-21T10:44:37.037Z,54.61
2024-01-21T10:47:06.525Z,53.59
2024-01-21T10:49:33.817Z,53.42
2024-01-21T10:52:01.356Z,52.89
2024-01-21T10:54:30.956Z,52.78
2024-01-21T10:56:59.083Z,53.24
2024-01-21T10:59:25.855Z,53.32
2024-01-21T11:01:52.861Z,53.25
2024-01-21T11:04:22.867Z,53.70
2024-01-21T11:06:51.630Z,54.22
2024-01-21T11:09:25.005Z,53.81
2024-01-21T11:11:56.107Z,53.21
2024-01-21T11:14:37.448Z,53.51
2024-01-21T11:17:12.037Z,53.96
2024-01-21T11:19:43.809Z,53.16
2024-01-21T11:22:16.391Z,53.85
2024-01-21T11:24:44.960Z,53.22
2024-01-21T11:27:19.861Z,54.02
2024-01-21T11:29:49.125Z,53.00
2024-01-21T11:32:17.492Z,53.92
2024-01-21T11:34:46.662Z,54.05
2024-01-21T11:37:17.091Z,52.43
2024-01-21T11:39:44.760Z,53.76
2024-01-21T11:42:11.400Z,53.21
2024-01-21T11:44:39.036Z,52.29
2024-01-21T11:47:07.085Z,52.64
2024-01-21T11:49:36.029Z,53.32
2024-01-21T11:52:08.072Z,53.40
2024-01-21T11:54:37.466Z,53.23
2024-01-21T11:57:04.882Z,53.62
2024-01-21T11:59:32.394Z,53.79
2024-01-21T12:02:00.125Z,53.04
2024-01-21T12:04:28.380Z,51.83
2024-01-21T12:06:55.886Z,52.42
2024-01-21T12:09:24.817Z,52.51
2024-01-21T12:11:52.088Z,52.03
2024-01-21T12:14:21.591Z,51.25
2024-01-21T12:16:52.881Z,51.64
2024-01-21T12:19:20.013Z,52.29
2024-01-21T12:21:46.842Z,52.45
2024-01-21T12:24:13.566Z,52.34
2024-01-21T12:26:40.074Z,52.65
2024-01-21T12:29:11.759Z,51.75
2024-01-21T12:31:39.848Z,52.50
2024-01-21T12:34:08.824Z,51.63
2024-01-21T12:36:46.465Z,51.45
2024-01-21T12:39:15.423Z,51.19
2024-01-21T12:41:41.994Z,51.87
2024-01-21T12:44:08.623Z,51.60
2024-01-21T12:46:35.940Z,51.29
2024-01-21T12:49:04.495Z,51.89
2024-01-21T12:51:32.648Z,51.28
2024-01-21T12:53:59.450Z,51.19
2024-01-21T12:56:26.126Z,51.10
2024-01-21T12:58:52.808Z,51.18
2024-01-21T13:01:19.617Z,51.36
2024-01-21T13:03:47.329Z,51.34
2024-01-21T13:06:14.107Z,51.52
2024-01-21T13:08:42.581Z,51.16
2024-01-21T13:11:09.299Z,51.05
2024-01-21T13:13:37.025Z,51.39
2024-01-21T13:16:05.481Z,51.38
2024-01-21T13:18:32.139Z,51.98
2024-01-21T13:20:58.965Z,51.87
2024-01-21T13:23:26.099Z,52.02
2024-01-21T13:25:52.950Z,51.38
2024-01-21T13:28:29.367Z,51.47
2024-01-21T13:30:56.798Z,51.05
2024-01-21T13:33:26.070Z,51.74
2024-01-21T13:35:54.125Z,51.37
2024-01-21T13:38:22.635Z,51.34
2024-01-21T13:40:49.656Z,51.77
2024-01-21T13:43:16.315Z,51.61
2024-01-21T13:45:43.270Z,52.08
2024-01-21T13:48:12.126Z,54.18
2024-01-21T13:50:42.096Z,55.16
2024-01-21T13:53:11.961Z,55.94
2024-01-21T13:55:39.058Z,56.23
2024-01-21T13:58:06.324Z,56.66
2024-01-21T14:00:33.689Z,56.41
2024-01-21T14:03:02.082Z,57.13
2024-01-21T14:05:29.751Z,58.34
2024-01-21T14:07:56.526Z,58.34
2024-01-21T14:10:23.881Z,57.90
2024-01-21T14:12:51.815Z,58.03
2024-01-21T14:15:18.464Z,58.91
2024-01-21T14:17:45.016Z,59.21
2024-01-21T14:20:14.472Z,59.11
2024-01-21T14:22:42.110Z,59.65
2024-01-21T14:25:26.984Z,59.54
2024-01-21T14:27:53.665Z,59.71
2024-01-21T14:30:30.764Z,60.01
2024-01-21T14:32:58.135Z,59.91
2024-01-21T14:35:24.874Z,60.08
2024-01-21T14:37:51.676Z,60.27
2024-01-21T14:40:18.156Z,60.28
2024-01-21T14:42:44.853Z,60.39
2024-01-21T14:45:11.713Z,60.12
2024-01-21T14:47:38.572Z,60.88
2024-01-21T14:50:05.650Z,60.17
2024-01-21T14:52:32.200Z,60.71
2024-01-21T14:54:59.397Z,60.46
2024-01-21T14:57:26.423Z,60.10
2024-01-21T14:59:53.731Z,60.06
2024-01-21T15:02:20.362Z,60.28
2024-01-21T15:04:46.933Z,60.43
2024-01-21T15:07:13.669Z,60.67
2024-01-21T15:09:40.483Z,60.20
2024-01-21T15:12:07.678Z,60.61
2024-01-21T15:14:45.833Z,61.06
2024-01-21T15:17:14.597Z,60.74
2024-01-21T15:19:46.609Z,60.82
2024-01-21T15:22:14.097Z,61.19
2024-01-21T15:24:41.752Z,61.40
2024-01-21T15:27:09.037Z,61.56
2024-01-21T15:29:36.649Z,61.28
2024-01-21T15:32:03.149Z,61.91
2024-01-21T15:34:30.173Z,61.61
2024-01-21T15:36:56.854Z,62.11
2024-01-21T15:39:23.459Z,61.82
2024-01-21T15:41:50.168Z,62.38
2024-01-21T15:44:16.898Z,62.41
2024-01-21T15:46:47.028Z,62.26
2024-01-21T15:49:14.262Z,62.09
2024-01-21T15:51:42.288Z,62.29
2024-01-21T15:54:10.633Z,62.58
2024-01-21T15:56:37.737Z,62.99
2024-01-21T15:59:05.022Z,63.29
2024-01-21T16:01:32.063Z,63.18
2024-01-21T16:03:59.440Z,63.54
2024-01-21T16:06:26.425Z,63.63
2024-01-21T16:08:53.529Z,64.30
2024-01-21T16:11:20.546Z,64.37
2024-01-21T16:13:47.167Z,64.37
2024-01-21T16:16:13.871Z,64.27
2024-01-21T16:18:40.510Z,64.66
2024-01-21T16:21:09.579Z,65.35
2024-01-21T16:23:36.573Z,65.08
2024-01-21T16:26:03.141Z,65.19
2024-01-21T16:28:29.624Z,65.15
2024-01-21T16:30:56.226Z,65.36
2024-01-21T16:33:24.758Z,65.70
2024-01-21T16:35:52.231Z,66.28
2024-01-21T16:38:19.153Z,66.31
2024-01-21T16:40:45.743Z,66.45
2024-01-21T16:43:12.518Z,66.27
2024-01-21T16:45:39.216Z,66.66
2024-01-21T16:48:06.429Z,66.41
2024-01-21T16:50:33.065Z,66.81
2024-01-21T16:53:14.154Z,66.43
2024-01-21T16:55:43.683Z,67.69
2024-01-21T16:58:10.634Z,66.59
2024-01-21T17:00:42.325Z,66.59
2024-01-21T17:03:10.519Z,66.58
2024-01-21T17:05:37.089Z,66.80
2024-01-21T17:08:05.247Z,67.06
2024-01-21T17:10:46.465Z,67.19
2024-01-21T17:13:13.632Z,67.73
2024-01-21T17:15:40.221Z,67.53
2024-01-21T17:18:16.931Z,67.31
2024-01-21T17:20:43.627Z,67.20
2024-01-21T17:23:10.264Z,67.23
2024-01-21T17:25:36.736Z,67.76
2024-01-21T17:28:03.400Z,68.71
2024-01-21T17:30:30.580Z,69.25
2024-01-21T17:32:57.176Z,68.85
2024-01-21T17:35:23.715Z,68.50
2024-01-21T17:37:50.224Z,69.39
2024-01-21T17:40:17.345Z,68.81
2024-01-21T17:42:44.081Z,69.80
2024-01-21T17:45:12.752Z,72.00
2024-01-21T17:47:40.275Z,71.68
2024-01-21T17:50:07.656Z,70.45
2024-01-21T17:52:34.484Z,70.54
2024-01-21T17:55:01.568Z,70.35
2024-01-21T17:57:31.489Z,70.83
2024-01-21T17:59:58.241Z,69.75
2024-01-21T18:02:24.804Z,70.87
2024-01-21T18:04:52.356Z,71.15
2024-01-21T18:07:20.363Z,71.53
2024-01-21T18:09:46.892Z,70.92
2024-01-21T18:12:13.439Z,71.21
2024-01-21T18:14:40.015Z,70.40
2024-01-21T18:17:06.554Z,71.14
2024-01-21T18:19:34.120Z,71.18
2024-01-21T18:22:00.970Z,71.70
2024-01-21T18:24:27.457Z,71.56
2024-01-21T18:26:54.387Z,71.84
2024-01-21T18:29:30.293Z,71.60
2024-01-21T18:32:05.422Z,71.95
2024-01-21T18:34:33.415Z,72.48
2024-01-21T18:37:03.038Z,72.13
2024-01-21T18:39:30.682Z,71.99
2024-01-21T18:41:57.934Z,72.36
2024-01-21T18:44:24.606Z,72.52
2024-01-21T18:46:53.046Z,71.61
2024-01-21T18:49:20.221Z,71.92
2024-01-21T18:51:48.104Z,70.98
2024-01-21T18:54:15.371Z,70.65
2024-01-21T18:56:42.010Z,70.87
2024-01-21T18:59:09.640Z,71.74
2024-01-21T19:01:36.283Z,72.37
2024-01-21T19:04:02.985Z,71.71
2024-01-21T19:06:29.769Z,71.35
2024-01-21T19:08:56.695Z,71.80
2024-01-21T19:11:23.453Z,71.55
2024-01-21T19:13:51.291Z,71.68
2024-01-21T19:16:17.728Z,71.28
2024-01-21T19:18:46.801Z,72.26
2024-01-21T19:21:15.542Z,72.52
2024-01-21T19:23:42.493Z,72.45
2024-01-21T19:26:13.730Z,72.07
2024-01-21T19:28:40.437Z,71.38
2024-01-21T19:31:07.021Z,71.27
2024-01-21T19:33:33.665Z,71.27
2024-01-21T19:36:00.695Z,70.67
2024-01-21T19:38:27.297Z,71.04
2024-01-21T19:40:53.901Z,70.99
2024-01-21T19:43:23.575Z,71.88
2024-01-21T19:45:50.461Z,71.70
2024-01-21T19:48:17.167Z,71.47
2024-01-21T19:50:46.585Z,71.92
2024-01-21T19:53:13.331Z,71.66
2024-01-21T19:55:40.276Z,72.10
2024-01-21T19:58:06.869Z,72.81
2024-01-21T20:00:33.478Z,73.15
2024-01-21T20:03:00.130Z,74.31
2024-01-21T20:05:26.842Z,74.81
2024-01-21T20:07:53.347Z,74.43
2024-01-21T20:10:21.154Z,74.66
2024-01-21T20:12:47.585Z,74.55
2024-01-21T20:15:14.344Z,75.33
2024-01-21T20:17:40.936Z,74.73
2024-01-21T20:20:07.893Z,73.64
2024-01-21T20:22:34.483Z,73.67
2024-01-21T20:25:01.279Z,73.36
2024-01-21T20:27:27.865Z,73.18
2024-01-21T20:29:54.910Z,73.68
2024-01-21T20:32:21.557Z,74.00
2024-01-21T20:34:49.213Z,74.30
2024-01-21T20:37:15.752Z,74.05
2024-01-21T20:39:42.199Z,74.00
2024-01-21T20:42:14.766Z,74.85
2024-01-21T20:44:41.439Z,75.55
2024-01-21T20:47:07.940Z,74.49
2024-01-21T20:49:36.192Z,74.36
2024-01-21T20:52:02.868Z,74.86
2024-01-21T20:54:39.067Z,75.30
2024-01-21T20:57:06.608Z,75.16
2024-01-21T20:59:33.118Z,74.89
2024-01-21T21:01:59.599Z,75.79
2024-01-21T21:04:26.102Z,77.66
2024-01-21T21:06:52.825Z,77.86
2024-01-21T21:09:19.423Z,76.33
2024-01-21T21:11:46.004Z,75.46
2024-01-21T21:14:13.228Z,75.92
2024-01-21T21:16:39.864Z,75.60
2024-01-21T21:19:06.577Z,75.07
2024-01-21T21:21:33.331Z,74.72
2024-01-21T21:24:00.672Z,75.04
2024-01-21T21:26:27.206Z,75.53
2024-01-21T21:28:53.753Z,75.93
2024-01-21T21:31:20.264Z,76.61
2024-01-21T21:33:47.046Z,77.66
2024-01-21T21:36:13.859Z,79.37
2024-01-21T21:38:40.469Z,79.19
2024-01-21T21:41:09.933Z,79.51
2024-01-21T21:43:38.667Z,80.78
2024-01-21T21:46:05.496Z,80.17
2024-01-21T21:48:32.181Z,79.76
2024-01-21T21:50:58.862Z,78.06
2024-01-21T21:53:26.308Z,77.66
2024-01-21T21:55:53.664Z,76.99
2024-01-21T21:58:20.261Z,76.86
2024-01-21T22:00:48.051Z,77.28
2024-01-21T22:03:15.621Z,78.00
2024-01-21T22:05:43.411Z,79.50
2024-01-21T22:08:11.522Z,80.34
2024-01-21T22:10:38.094Z,79.18
2024-01-21T22:13:04.875Z,76.10
2024-01-21T22:15:32.912Z,76.44
2024-01-21T22:17:59.548Z,76.12
2024-01-21T22:20:26.353Z,75.78
2024-01-21T22:22:52.898Z,75.54
2024-01-21T22:25:19.645Z,75.84
2024-01-21T22:27:46.379Z,75.77
2024-01-21T22:30:13.474Z,75.23
2024-01-21T22:32:40.116Z,74.95
2024-01-21T22:35:06.936Z,75.91
2024-01-21T22:37:34.109Z,76.18
2024-01-21T22:40:00.711Z,75.25
2024-01-21T22:42:27.206Z,74.19
2024-01-21T22:44:53.842Z,73.70
2024-01-21T22:47:20.400Z,73.21
2024-01-21T22:49:46.887Z,73.18
2024-01-21T22:52:13.913Z,72.47
2024-01-21T22:54:40.389Z,72.54
2024-01-21T22:57:06.978Z,72.75
2024-01-21T22:59:34.320Z,74.06
2024-01-21T23:02:00.967Z,74.31
2024-01-21T23:04:27.468Z,75.48
2024-01-21T23:06:54.965Z,77.68
2024-01-21T23:09:21.504Z,77.13
2024-01-21T23:11:47.998Z,77.99
2024-01-21T23:14:14.679Z,77.61
2024-01-21T23:16:41.246Z,75.42
2024-01-21T23:19:08.313Z,73.81
2024-01-21T23:21:34.874Z,74.00
2024-01-21T23:24:01.455Z,74.01
2024-01-21T23:26:28.025Z,73.87
2024-01-21T23:28:54.532Z,75.51
2024-01-21T23:31:21.073Z,77.32
2024-01-21T23:33:47.736Z,77.52
2024-01-21T23:36:14.548Z,78.40
2024-01-21T23:38:41.485Z,77.31
2024-01-21T23:41:08.644Z,74.18
2024-01-21T23:43:35.102Z,73.34
2024-01-21T23:46:04.945Z,72.93
2024-01-21T23:48:34.412Z,73.02
2024-01-21T23:51:01.521Z,73.53
2024-01-21T23:53:28.084Z,74.39
2024-01-21T23:55:55.173Z,75.19
2024-01-21T23:58:21.791Z,74.41
